KPRX/PRX METAR and TAF weather

Enter ICAO airport designator
Station Type Date Time Source
KPRX METAR 2019/07/17 12:56 UTC NOAA

KPRX 171256Z AUTO 19011KT 10SM CLR 26/23 A3004 RMK AO2 SLP175 T02610233 $


Station Type Date Time Source
KPRX Decoded METAR 2019/07/17 12:56 UTC NOAA

Paris / Cox Field, TX, United States (KPRX) 33-38N 095-27W
Jul 17, 2019 - 08:56 AM EDT / 2019.07.17 1256 UTC
Wind: from the S (190 degrees) at 13 MPH (11 KT):0
Visibility: 10 mile(s):0
Sky conditions: clear
Temperature: 79.0 F (26.1 C)
Dew Point: 73.9 F (23.3 C)
Relative Humidity: 84%
Pressure (altimeter): 30.04 in. Hg (1017 hPa)
ob: KPRX 171256Z AUTO 19011KT 10SM CLR 26/23 A3004 RMK AO2 SLP175 T02610233
cycle: 13

Station Type Date Time Source
KPRX TAF UTC NOAA

Error!

Example: see airport list